Time;durP1;ratioP1;P1;durP2;ratioP2;P2;SDS_P1;SDS_P2;PMS_P1;PMS_P2;Temp;Humidity;BMP_temperature;BMP_pressure;BME280_temperature;BME280_humidity;BME280_pressure;Samples;Min_cycle;Max_cycle;Signal;HPM_P1;HPM_P2
2023/10/14 00:00:28;;;;;;;6.55;3.40;;;20.50;79.70;;;;;;6277781;22;20020;-76
2023/10/14 00:02:53;;;;;;;6.03;3.50;;;20.50;79.70;;;;;;6278642;22;20023;-76
2023/10/14 00:05:22;;;;;;;6.43;3.28;;;20.50;80.30;;;;;;6306843;22;20020;-76
2023/10/14 00:07:52;;;;;;;5.68;3.40;;;20.50;79.70;;;;;;6280493;22;20015;-76
2023/10/14 00:10:18;;;;;;;5.15;2.72;;;20.50;79.70;;;;;;6279660;22;20015;-76
2023/10/14 00:12:52;;;;;;;5.32;3.15;;;20.50;79.70;;;;;;6308610;22;20108;-76
2023/10/14 00:15:18;;;;;;;6.50;3.15;;;20.50;79.70;;;;;;6279259;22;20024;-77
2023/10/14 00:17:43;;;;;;;7.00;3.20;;;20.50;79.70;;;;;;6281547;22;20019;-77
2023/10/14 00:20:10;;;;;;;7.95;3.05;;;20.50;79.70;;;;;;6281057;22;20439;-77
2023/10/14 00:22:39;;;;;;;5.65;3.00;;;20.50;79.60;;;;;;6280498;22;20003;-77
2023/10/14 00:25:15;;;;;;;5.63;2.85;;;20.50;79.60;;;;;;6280504;22;20019;-76
2023/10/14 00:27:42;;;;;;;5.68;3.03;;;20.50;79.70;;;;;;6281030;22;20347;-76
2023/10/14 00:30:11;;;;;;;9.53;3.10;;;20.50;79.70;;;;;;6279455;22;20019;-76
2023/10/14 00:32:38;;;;;;;6.38;3.00;;;20.50;79.70;;;;;;6280647;22;20022;-76
2023/10/14 00:35:09;;;;;;;5.28;2.90;;;20.50;79.70;;;;;;6281381;22;20090;-76
2023/10/14 00:37:35;;;;;;;4.88;2.72;;;20.50;79.70;;;;;;6281348;22;20023;-76
2023/10/14 00:40:10;;;;;;;4.63;2.40;;;20.50;79.70;;;;;;6280516;22;20494;-77
2023/10/14 00:42:36;;;;;;;5.10;2.67;;;20.50;79.70;;;;;;6306179;22;20019;-78
2023/10/14 00:45:09;;;;;;;5.05;2.85;;;20.40;79.60;;;;;;6308584;22;20021;-77
2023/10/14 00:47:37;;;;;;;4.18;2.45;;;20.40;79.60;;;;;;6280830;22;20015;-77
2023/10/14 00:50:20;;;;;;;5.22;2.83;;;20.50;79.60;;;;;;6279767;22;20064;-77
2023/10/14 00:52:53;;;;;;;4.88;2.80;;;20.50;80.00;;;;;;6237525;22;20019;-77
2023/10/14 00:55:24;;;;;;;4.82;2.65;;;20.40;79.60;;;;;;6282578;22;20021;-78
2023/10/14 00:57:54;;;;;;;4.90;2.30;;;20.40;79.50;;;;;;6280387;22;20015;-78
2023/10/14 01:00:33;;;;;;;4.63;2.60;;;20.40;79.50;;;;;;6281985;22;20018;-78
2023/10/14 01:03:01;;;;;;;5.75;2.55;;;20.40;79.50;;;;;;6280939;22;20046;-77
2023/10/14 01:05:29;;;;;;;5.07;2.60;;;20.40;79.50;;;;;;6278954;22;20015;-78
2023/10/14 01:07:58;;;;;;;4.30;2.40;;;20.40;79.50;;;;;;6281005;22;20069;-78
2023/10/14 01:10:25;;;;;;;4.63;2.30;;;20.40;79.40;;;;;;6279096;22;20048;-77
2023/10/14 01:12:56;;;;;;;4.25;2.20;;;20.40;79.40;;;;;;6280520;22;20043;-77
2023/10/14 01:15:23;;;;;;;6.15;2.53;;;20.40;79.40;;;;;;6280268;22;20023;-77
2023/10/14 01:17:49;;;;;;;4.10;2.35;;;20.40;79.40;;;;;;6279999;22;20095;-77
2023/10/14 01:22:44;;;;;;;5.85;2.40;;;20.40;79.40;;;;;;6280756;22;20070;-77
2023/10/14 01:25:15;;;;;;;4.20;2.00;;;20.40;79.40;;;;;;6279517;22;20046;-77
2023/10/14 01:27:43;;;;;;;3.95;2.20;;;20.40;79.30;;;;;;6281114;22;20022;-77
2023/10/14 01:30:19;;;;;;;3.45;1.88;;;20.40;79.30;;;;;;6308044;22;20016;-78
2023/10/14 01:35:31;;;;;;;;;;;20.40;79.30;;;;;;6308058;22;20022;-80
2023/10/14 01:37:57;;;;;;;3.53;2.00;;;20.40;79.20;;;;;;6280747;22;19915;-78
2023/10/14 01:43:09;;;;;;;2.95;1.77;;;20.40;79.20;;;;;;6280311;22;20023;-78
2023/10/14 01:48:13;;;;;;;4.72;2.28;;;20.30;79.20;;;;;;6278972;22;20023;-78
2023/10/14 01:50:54;;;;;;;4.28;2.05;;;20.30;79.10;;;;;;6280622;22;20023;-79
2023/10/14 01:53:23;;;;;;;6.03;2.40;;;20.30;79.10;;;;;;6306993;22;20025;-79
2023/10/14 01:55:54;;;;;;;3.75;1.73;;;20.30;79.10;;;;;;6307700;22;20041;-80
2023/10/14 01:58:23;;;;;;;3.90;1.80;;;20.30;79.10;;;;;;6307730;22;20015;-79
2023/10/14 02:00:56;;;;;;;3.50;1.73;;;20.30;79.10;;;;;;6278706;22;20049;-79
2023/10/14 02:03:22;;;;;;;3.30;1.83;;;20.30;79.00;;;;;;6279885;22;20027;-78
2023/10/14 02:05:51;;;;;;;5.35;2.15;;;20.30;79.10;;;;;;6280248;22;20015;-79
2023/10/14 02:08:21;;;;;;;3.40;1.77;;;20.30;79.00;;;;;;6278855;22;20027;-79
2023/10/14 02:10:47;;;;;;;3.65;2.00;;;20.30;79.00;;;;;;6280534;22;20038;-78
2023/10/14 02:13:14;;;;;;;3.47;1.80;;;20.30;78.90;;;;;;6278578;22;20030;-78
2023/10/14 02:15:40;;;;;;;4.03;1.63;;;20.30;78.90;;;;;;6305323;22;20064;-79
2023/10/14 02:18:05;;;;;;;5.28;1.90;;;20.30;78.80;;;;;;6280248;22;20011;-79
2023/10/14 02:20:38;;;;;;;2.95;1.70;;;20.30;78.80;;;;;;6279487;22;20025;-78
2023/10/14 02:23:04;;;;;;;4.45;2.05;;;20.30;78.90;;;;;;6280670;22;20011;-78
2023/10/14 02:25:32;;;;;;;4.47;1.88;;;20.30;78.90;;;;;;6307094;22;20442;-77
2023/10/14 02:27:58;;;;;;;4.68;1.85;;;20.30;78.80;;;;;;6279024;22;20910;-77
2023/10/14 02:30:24;;;;;;;3.72;1.60;;;20.30;78.80;;;;;;6279295;22;20011;-77
2023/10/14 02:32:49;;;;;;;4.13;2.00;;;20.20;78.70;;;;;;6280383;22;20440;-77
2023/10/14 02:35:15;;;;;;;5.00;1.67;;;20.30;78.80;;;;;;6306171;22;20427;-78
2023/10/14 02:37:41;;;;;;;3.33;1.70;;;20.30;78.80;;;;;;6279208;22;20459;-77
2023/10/14 02:40:13;;;;;;;3.88;1.63;;;20.30;78.70;;;;;;6279551;22;20054;-79
2023/10/14 02:42:40;;;;;;;3.22;1.70;;;20.20;78.70;;;;;;6279143;22;20083;-77
2023/10/14 02:45:12;;;;;;;2.40;1.47;;;20.20;78.70;;;;;;6279010;22;20019;-77
2023/10/14 02:47:38;;;;;;;4.78;1.88;;;20.30;78.70;;;;;;6307376;22;20277;-78
2023/10/14 02:50:05;;;;;;;3.58;1.80;;;20.20;78.60;;;;;;6277875;22;20090;-78
2023/10/14 02:52:31;;;;;;;4.22;1.25;;;20.20;78.60;;;;;;6279693;22;20027;-78
2023/10/14 02:55:50;;;;;;;3.70;1.23;;;20.20;78.60;;;;;;6307048;22;20459;-78
2023/10/14 02:57:45;;;;;;;3.42;1.63;;;20.20;78.60;;;;;;6266653;22;20019;-78
2023/10/14 03:00:12;;;;;;;2.70;1.30;;;20.20;78.60;;;;;;6278079;22;20053;-78
2023/10/14 03:02:48;;;;;;;2.40;1.38;;;20.20;78.60;;;;;;6280154;22;20034;-78
2023/10/14 03:05:32;;;;;;;4.30;1.58;;;20.20;78.60;;;;;;6279169;22;20076;-78
2023/10/14 03:08:06;;;;;;;3.42;1.60;;;20.20;78.60;;;;;;6279887;22;20022;-78
2023/10/14 03:10:35;;;;;;;3.45;1.52;;;20.20;78.60;;;;;;6306439;22;20030;-78
2023/10/14 03:13:01;;;;;;;4.15;1.40;;;20.20;78.60;;;;;;6279873;22;20019;-78
2023/10/14 03:15:30;;;;;;;3.45;1.27;;;20.20;78.60;;;;;;6279407;22;20018;-78
2023/10/14 03:17:58;;;;;;;4.25;1.50;;;20.20;78.60;;;;;;6278938;22;20347;-78
2023/10/14 03:22:57;;;;;;;3.95;1.65;;;20.20;78.50;;;;;;6278570;22;20027;-78
2023/10/14 03:25:23;;;;;;;3.65;1.63;;;20.20;78.50;;;;;;6278282;22;20012;-78
2023/10/14 03:27:58;;;;;;;4.43;1.65;;;20.20;78.50;;;;;;6279637;22;20030;-78
2023/10/14 03:30:24;;;;;;;4.65;1.55;;;20.20;78.50;;;;;;6306275;22;20034;-77
2023/10/14 03:32:50;;;;;;;4.00;1.65;;;20.10;78.50;;;;;;6306069;22;20436;-77
2023/10/14 03:35:20;;;;;;;3.88;1.48;;;20.10;78.50;;;;;;6278215;22;20049;-78
2023/10/14 03:37:53;;;;;;;2.60;1.15;;;20.10;78.40;;;;;;6278968;22;20022;-78
2023/10/14 03:43:07;;;;;;;3.15;1.10;;;20.10;78.30;;;;;;6279399;22;20027;-78
2023/10/14 03:45:33;;;;;;;3.83;1.27;;;20.10;78.30;;;;;;6278729;22;20098;-78
2023/10/14 03:48:00;;;;;;;2.80;1.10;;;20.10;78.30;;;;;;6279526;22;20451;-79
2023/10/14 03:50:26;;;;;;;2.77;1.40;;;20.10;78.30;;;;;;6279331;22;20074;-79
2023/10/14 03:52:55;;;;;;;3.25;1.27;;;20.10;78.30;;;;;;6278118;22;20019;-78
2023/10/14 03:55:26;;;;;;;4.15;1.13;;;20.10;78.20;;;;;;6278541;22;20012;-78
2023/10/14 03:57:55;;;;;;;3.00;1.17;;;20.10;78.20;;;;;;6278914;22;20114;-78
2023/10/14 04:00:38;;;;;;;3.60;1.20;;;20.10;78.20;;;;;;6278518;22;20110;-78
2023/10/14 04:03:11;;;;;;;4.40;1.40;;;20.10;78.10;;;;;;6279751;22;20023;-79
2023/10/14 04:05:37;;;;;;;3.55;1.42;;;20.10;78.20;;;;;;6279512;22;20019;-79
2023/10/14 04:08:05;;;;;;;3.30;1.40;;;20.10;78.10;;;;;;6278614;22;20027;-78
2023/10/14 04:10:35;;;;;;;4.88;1.23;;;20.10;78.10;;;;;;6279103;22;20011;-78
2023/10/14 04:13:04;;;;;;;3.65;1.20;;;20.10;78.10;;;;;;6307058;22;20030;-79
2023/10/14 04:17:55;;;;;;;4.93;1.25;;;20.00;78.00;;;;;;6278896;22;20030;-79
2023/10/14 04:22:48;;;;;;;2.28;1.20;;;20.00;77.90;;;;;;6279151;22;20039;-79
2023/10/14 04:25:19;;;;;;;2.58;1.10;;;20.10;78.00;;;;;;6279051;22;20030;-79
2023/10/14 04:30:25;;;;;;;2.95;1.20;;;20.10;77.90;;;;;;6306564;22;20098;-78
2023/10/14 04:35:23;;;;;;;3.45;1.23;;;20.00;77.70;;;;;;6277999;22;20043;-79
2023/10/14 04:37:55;;;;;;;3.22;1.27;;;20.00;77.80;;;;;;6278352;22;20019;-79
2023/10/14 04:43:02;;;;;;;3.88;1.40;;;20.00;77.70;;;;;;6277088;22;20027;-79
2023/10/14 04:45:32;;;;;;;3.92;1.25;;;20.00;77.70;;;;;;6278104;22;20423;-79
2023/10/14 04:47:58;;;;;;;5.35;1.30;;;20.00;77.60;;;;;;6278001;22;20015;-79
2023/10/14 04:50:24;;;;;;;3.63;1.23;;;20.00;77.60;;;;;;6277446;22;20061;-80
2023/10/14 04:52:49;;;;;;;4.85;1.20;;;20.00;77.60;;;;;;6308508;22;20019;-80
2023/10/14 04:55:26;;;;;;;5.15;1.33;;;20.00;77.60;;;;;;6281040;22;20018;-79
2023/10/14 05:00:57;;;;;;;3.53;1.10;;;20.00;77.60;;;;;;6229566;22;20034;-80
2023/10/14 05:03:22;;;;;;;1.83;1.00;;;20.00;77.60;;;;;;6279006;22;20355;-79
2023/10/14 05:06:14;;;;;;;2.95;1.00;;;20.00;77.50;;;;;;6281666;22;20019;-79
2023/10/14 05:08:51;;;;;;;3.22;1.45;;;20.00;77.50;;;;;;6281645;22;20057;-74
2023/10/14 05:11:22;;;;;;;2.47;1.00;;;19.90;77.40;;;;;;6279622;22;20019;-73
2023/10/14 05:14:08;;;;;;;5.25;1.30;;;20.00;77.30;;;;;;6308360;22;20370;-73
2023/10/14 05:17:04;;;;;;;5.20;1.20;;;20.00;77.20;;;;;;6279934;22;20056;-74
2023/10/14 05:19:30;;;;;;;4.93;1.48;;;19.90;77.00;;;;;;6307731;22;20378;-74
2023/10/14 05:21:57;;;;;;;4.63;1.48;;;20.00;77.00;;;;;;6280958;22;20470;-74
2023/10/14 05:24:23;;;;;;;4.43;1.23;;;19.90;76.90;;;;;;6279757;22;20027;-74
2023/10/14 05:26:58;;;;;;;4.90;1.38;;;20.00;76.90;;;;;;6280884;22;20098;-73
2023/10/14 05:29:24;;;;;;;4.50;1.40;;;20.00;76.80;;;;;;6280668;22;20015;-73
2023/10/14 05:31:50;;;;;;;5.25;1.40;;;20.00;76.80;;;;;;6279997;22;20020;-74
2023/10/14 05:34:26;;;;;;;5.68;1.20;;;20.00;76.70;;;;;;6280328;22;20012;-74
2023/10/14 05:36:57;;;;;;;5.40;1.50;;;20.00;76.60;;;;;;6308516;22;20024;-74
2023/10/14 05:39:24;;;;;;;5.40;1.10;;;20.00;76.70;;;;;;6279303;22;20015;-74
2023/10/14 05:41:58;;;;;;;2.45;1.00;;;20.00;76.70;;;;;;6279938;22;20019;-73
2023/10/14 05:44:27;;;;;;;5.68;1.60;;;20.00;76.60;;;;;;6307850;22;20347;-74
2023/10/14 05:46:56;;;;;;;6.72;1.35;;;20.00;76.60;;;;;;6279487;22;20027;-74
2023/10/14 05:49:24;;;;;;;4.25;1.20;;;20.00;76.60;;;;;;6307568;22;20019;-74
2023/10/14 05:51:51;;;;;;;4.18;1.23;;;20.00;76.60;;;;;;6279591;22;20011;-74
2023/10/14 05:54:17;;;;;;;4.47;1.13;;;20.10;76.60;;;;;;6307423;22;20015;-73
2023/10/14 05:56:43;;;;;;;4.75;1.20;;;20.00;76.60;;;;;;6279782;22;20060;-78
2023/10/14 05:59:10;;;;;;;5.40;1.30;;;20.10;76.70;;;;;;6279629;22;20023;-74
2023/10/14 06:01:36;;;;;;;6.70;1.53;;;20.10;76.70;;;;;;6280054;22;20126;-75
2023/10/14 06:04:03;;;;;;;5.07;1.08;;;20.10;76.80;;;;;;6254836;22;20136;-76
2023/10/14 06:06:31;;;;;;;4.95;1.40;;;20.10;76.80;;;;;;6279195;22;20308;-74
2023/10/14 06:09:00;;;;;;;6.47;1.27;;;20.10;76.80;;;;;;6307700;22;20446;-71
2023/10/14 06:11:26;;;;;;;6.47;1.67;;;20.20;76.90;;;;;;6280201;22;20509;-74
2023/10/14 06:13:51;;;;;;;3.15;1.20;;;20.10;76.90;;;;;;6279565;22;20015;-73
2023/10/14 06:16:17;;;;;;;6.53;1.17;;;20.10;76.90;;;;;;6280210;22;20012;-75
2023/10/14 06:18:47;;;;;;;5.75;1.38;;;20.10;77.00;;;;;;6308088;22;20446;-74
2023/10/14 06:21:15;;;;;;;8.63;1.45;;;20.20;77.00;;;;;;6306614;22;20031;-77
2023/10/14 06:23:46;;;;;;;5.70;1.15;;;20.20;77.00;;;;;;6307689;22;20336;-73
2023/10/14 06:26:16;;;;;;;4.82;1.30;;;20.20;77.00;;;;;;6279759;22;20015;-74
2023/10/14 06:28:42;;;;;;;5.18;1.10;;;20.20;77.00;;;;;;6278740;22;20061;-77
2023/10/14 06:31:08;;;;;;;6.43;1.33;;;20.20;77.10;;;;;;6280123;22;20069;-74
2023/10/14 06:33:33;;;;;;;4.68;1.17;;;20.20;77.10;;;;;;6280025;22;20023;-73
2023/10/14 06:36:03;;;;;;;4.45;1.08;;;20.30;77.20;;;;;;6279297;22;20019;-75
2023/10/14 06:38:29;;;;;;;4.80;1.48;;;20.30;77.20;;;;;;6307183;22;20393;-72
2023/10/14 06:41:01;;;;;;;5.28;1.52;;;20.30;77.30;;;;;;6279283;22;20015;-80
2023/10/14 06:43:27;;;;;;;7.85;1.50;;;20.30;77.20;;;;;;6280040;22;20011;-74
2023/10/14 06:45:53;;;;;;;6.22;1.48;;;20.30;77.20;;;;;;6280425;22;20356;-78
2023/10/14 06:48:18;;;;;;;5.22;1.67;;;20.30;77.20;;;;;;6306866;22;20011;-75
2023/10/14 06:50:47;;;;;;;4.90;1.40;;;20.30;77.20;;;;;;6307223;22;20447;-75
2023/10/14 06:53:17;;;;;;;;;;;20.30;77.10;;;;;;6306897;22;20019;-73
2023/10/14 06:55:43;;;;;;;4.43;1.80;;;20.30;77.20;;;;;;6278286;22;19922;-75
2023/10/14 06:58:13;;;;;;;8.25;1.80;;;20.30;77.20;;;;;;6279428;22;20023;-78
2023/10/14 07:00:39;;;;;;;4.55;1.55;;;20.30;77.20;;;;;;6279293;22;20382;-76
2023/10/14 07:03:15;;;;;;;5.57;1.55;;;20.30;77.20;;;;;;6278850;22;20019;-77
2023/10/14 07:05:46;;;;;;;6.55;1.45;;;20.30;77.30;;;;;;6279945;22;20436;-74
2023/10/14 07:08:12;;;;;;;4.72;1.67;;;20.30;77.30;;;;;;6279489;22;20389;-72
2023/10/14 07:10:39;;;;;;;6.45;1.98;;;20.30;77.20;;;;;;6278511;22;20023;-77
2023/10/14 07:13:05;;;;;;;6.43;1.63;;;20.30;77.30;;;;;;6279864;22;20019;-73
2023/10/14 07:15:34;;;;;;;7.15;1.90;;;20.30;77.20;;;;;;6279120;22;20439;-73
2023/10/14 07:18:01;;;;;;;6.60;1.52;;;20.30;77.30;;;;;;6279611;22;20011;-78
2023/10/14 07:20:29;;;;;;;5.88;1.60;;;20.30;77.30;;;;;;6279476;22;20050;-76
2023/10/14 07:22:58;;;;;;;;;;;20.30;77.40;;;;;;6280526;22;20450;-76
2023/10/14 07:25:25;;;;;;;4.55;1.50;;;20.30;77.20;;;;;;6278331;22;19915;-73
2023/10/14 07:27:51;;;;;;;5.47;1.60;;;20.30;77.20;;;;;;6279807;22;20028;-71
2023/10/14 07:30:17;;;;;;;6.35;1.75;;;20.40;77.20;;;;;;6278035;22;20435;-80
2023/10/14 07:32:44;;;;;;;7.70;1.98;;;20.30;77.20;;;;;;6279459;22;20035;-72
2023/10/14 07:35:11;;;;;;;5.22;1.75;;;20.40;77.20;;;;;;6306482;22;20007;-75
2023/10/14 07:37:40;;;;;;;7.55;1.98;;;20.40;77.20;;;;;;6276741;22;20351;-78
2023/10/14 07:40:11;;;;;;;6.50;1.73;;;20.40;77.20;;;;;;6279267;22;20015;-76
2023/10/14 07:42:40;;;;;;;7.10;2.35;;;20.40;77.20;;;;;;6281111;22;20016;-76
2023/10/14 07:45:10;;;;;;;6.63;1.77;;;20.40;77.20;;;;;;6280537;22;20019;-80
2023/10/14 07:47:40;;;;;;;6.65;2.13;;;20.40;77.10;;;;;;6281752;22;20080;-78
2023/10/14 07:50:09;;;;;;;8.77;1.80;;;20.50;77.20;;;;;;6304886;22;20419;-81
2023/10/14 07:52:36;;;;;;;10.65;2.63;;;20.50;77.20;;;;;;6276974;22;20026;-76
2023/10/14 07:55:03;;;;;;;5.90;2.00;;;20.50;77.20;;;;;;6306639;22;20011;-78
2023/10/14 07:57:28;;;;;;;8.68;1.83;;;20.50;77.20;;;;;;6278493;22;20664;-76
2023/10/14 07:59:59;;;;;;;5.45;2.05;;;20.50;77.20;;;;;;6305862;22;20019;-79
2023/10/14 08:02:27;;;;;;;7.40;2.33;;;20.60;77.20;;;;;;6278489;22;20019;-79
2023/10/14 08:04:53;;;;;;;6.50;2.05;;;20.60;77.10;;;;;;6306226;22;20474;-78
2023/10/14 08:07:19;;;;;;;10.82;2.40;;;20.60;77.10;;;;;;6278709;22;20016;-79
2023/10/14 08:09:45;;;;;;;5.80;2.28;;;20.60;77.10;;;;;;6309260;22;20019;-75
2023/10/14 08:12:14;;;;;;;3.72;1.80;;;20.60;77.00;;;;;;6279623;22;20076;-75
2023/10/14 08:14:40;;;;;;;7.60;2.22;;;20.70;77.10;;;;;;6281491;22;20026;-80
2023/10/14 08:17:11;;;;;;;7.85;1.92;;;20.70;77.10;;;;;;6279396;22;20015;-76
2023/10/14 08:19:38;;;;;;;5.78;2.00;;;20.70;76.90;;;;;;6306081;22;20019;-77
2023/10/14 08:22:05;;;;;;;6.88;2.17;;;20.80;77.00;;;;;;6278765;22;20086;-77
2023/10/14 08:24:31;;;;;;;6.68;2.53;;;20.70;76.80;;;;;;6277901;22;20045;-77
2023/10/14 08:26:56;;;;;;;9.38;2.30;;;20.80;76.70;;;;;;6280240;22;20043;-81
2023/10/14 08:29:22;;;;;;;5.65;2.45;;;20.80;76.70;;;;;;6280519;22;20022;-74
2023/10/14 08:31:51;;;;;;;6.88;2.13;;;20.80;76.60;;;;;;6281254;22;20019;-79
2023/10/14 08:34:17;;;;;;;6.93;2.28;;;20.80;76.50;;;;;;6281158;22;20056;-76
2023/10/14 08:36:43;;;;;;;8.38;2.13;;;20.80;76.40;;;;;;6308124;22;20023;-79
2023/10/14 08:39:09;;;;;;;15.35;3.20;;;20.90;76.40;;;;;;6307749;22;20025;-78
2023/10/14 08:41:36;;;;;;;7.68;1.98;;;20.80;76.30;;;;;;6279863;22;20023;-78
2023/10/14 08:44:08;;;;;;;7.00;1.90;;;20.90;76.30;;;;;;6256051;22;20019;-76
2023/10/14 08:46:35;;;;;;;6.47;2.42;;;20.90;76.20;;;;;;6308693;22;20019;-77
2023/10/14 08:49:03;;;;;;;5.57;2.30;;;20.90;76.20;;;;;;6254780;22;20461;-79
2023/10/14 08:51:29;;;;;;;7.82;2.22;;;20.90;76.10;;;;;;6231724;22;20026;-81
2023/10/14 08:53:54;;;;;;;8.25;2.08;;;20.90;76.00;;;;;;6230745;22;20099;-73
2023/10/14 08:56:22;;;;;;;9.02;2.53;;;20.90;76.00;;;;;;6280243;22;20019;-79
2023/10/14 08:58:48;;;;;;;5.32;2.10;;;20.90;75.90;;;;;;6258558;22;20007;-77
2023/10/14 09:01:16;;;;;;;4.95;1.80;;;20.90;75.90;;;;;;6254378;22;20026;-79
2023/10/14 09:03:46;;;;;;;8.13;2.55;;;21.00;75.90;;;;;;6278927;22;20072;-79
2023/10/14 09:06:12;;;;;;;7.70;1.80;;;21.00;75.70;;;;;;6307986;22;20015;-79
2023/10/14 09:08:39;;;;;;;7.28;1.95;;;21.00;75.60;;;;;;6307206;22;20015;-78
2023/10/14 09:11:05;;;;;;;6.97;2.10;;;21.00;75.50;;;;;;6255832;22;20101;-78
2023/10/14 09:13:33;;;;;;;6.00;2.22;;;21.10;75.50;;;;;;6280760;22;20038;-77
2023/10/14 09:15:59;;;;;;;7.97;1.98;;;21.10;75.40;;;;;;6307957;22;20062;-77
2023/10/14 09:18:32;;;;;;;7.55;1.80;;;21.10;75.20;;;;;;6308125;22;20011;-77
2023/10/14 09:21:00;;;;;;;8.38;1.80;;;21.00;75.10;;;;;;6280950;22;20086;-77
2023/10/14 09:23:27;;;;;;;6.00;1.98;;;21.10;75.00;;;;;;6279931;22;20026;-75
2023/10/14 09:26:00;;;;;;;8.70;2.10;;;21.10;75.00;;;;;;6280845;22;20109;-78
2023/10/14 09:28:26;;;;;;;10.00;2.22;;;21.00;74.90;;;;;;6280603;22;20018;-69
2023/10/14 09:30:53;;;;;;;10.82;1.80;;;21.10;75.10;;;;;;6307465;22;20381;-68
2023/10/14 09:33:32;;;;;;;13.13;2.40;;;21.00;74.90;;;;;;6308671;22;20043;-70
2023/10/14 09:36:03;;;;;;;10.65;2.33;;;21.00;74.80;;;;;;6308027;22;20011;-75
2023/10/14 09:38:32;;;;;;;12.13;2.30;;;21.00;75.10;;;;;;6279849;22;20438;-71
2023/10/14 09:41:05;;;;;;;9.23;2.15;;;21.00;74.80;;;;;;6280892;22;20069;-76
2023/10/14 09:43:34;;;;;;;10.20;1.90;;;21.10;74.50;;;;;;6280462;22;20524;-79
2023/10/14 09:46:03;;;;;;;9.15;1.90;;;21.20;74.50;;;;;;6279841;22;20056;-76
2023/10/14 09:48:30;;;;;;;10.52;1.88;;;21.20;74.40;;;;;;6307387;22;20057;-73
2023/10/14 09:50:56;;;;;;;15.38;2.70;;;21.20;74.80;;;;;;6306608;22;20522;-78
2023/10/14 09:53:27;;;;;;;11.80;2.47;;;21.20;74.20;;;;;;6280088;22;20011;-79
2023/10/14 09:55:56;;;;;;;9.25;2.17;;;21.20;74.60;;;;;;6280250;22;20026;-78
2023/10/14 09:58:23;;;;;;;9.32;2.22;;;21.10;73.90;;;;;;6279485;22;20016;-77
2023/10/14 10:00:49;;;;;;;10.13;2.05;;;21.10;73.90;;;;;;6280566;22;20019;-77
2023/10/14 10:03:15;;;;;;;12.55;2.20;;;21.10;74.00;;;;;;6280408;22;20034;-77
2023/10/14 10:05:45;;;;;;;8.77;1.75;;;21.10;74.00;;;;;;6253897;22;20431;-77
2023/10/14 10:08:33;;;;;;;8.00;1.85;;;21.10;74.00;;;;;;6230550;22;20331;-76
2023/10/14 10:10:58;;;;;;;10.15;2.00;;;21.10;74.00;;;;;;6280711;22;20019;-77
2023/10/14 10:13:28;;;;;;;12.45;2.05;;;21.00;73.90;;;;;;6228335;22;20015;-76
2023/10/14 10:15:53;;;;;;;8.88;1.85;;;21.00;73.80;;;;;;6280458;22;20019;-77
2023/10/14 10:18:22;;;;;;;10.57;2.03;;;21.00;73.80;;;;;;6254199;22;20015;-78
2023/10/14 10:20:56;;;;;;;10.48;1.92;;;21.00;73.80;;;;;;6229880;22;20019;-75
2023/10/14 10:23:25;;;;;;;9.90;2.20;;;21.00;73.70;;;;;;6279745;22;20038;-76
2023/10/14 10:25:51;;;;;;;15.48;2.15;;;21.00;73.70;;;;;;6280052;22;20463;-77
2023/10/14 10:28:26;;;;;;;8.93;1.83;;;20.90;73.60;;;;;;6305789;22;20023;-74
2023/10/14 10:30:52;;;;;;;9.50;1.92;;;20.90;73.50;;;;;;6280446;22;20020;-76
2023/10/14 10:33:18;;;;;;;8.48;1.88;;;20.90;73.60;;;;;;6279114;22;20023;-75
2023/10/14 10:35:56;;;;;;;11.90;1.92;;;20.90;73.50;;;;;;6254822;22;20030;-75
2023/10/14 10:38:23;;;;;;;11.10;2.67;;;20.90;73.50;;;;;;6279924;22;20030;-74
2023/10/14 10:41:27;;;;;;;10.65;1.98;;;20.90;73.60;;;;;;6306887;22;20420;-73
2023/10/14 10:44:01;;;;;;;8.45;1.90;;;20.80;73.30;;;;;;6279980;22;20030;-72
2023/10/14 10:46:39;;;;;;;6.63;1.48;;;20.80;73.40;;;;;;6254053;22;20077;-73
2023/10/14 10:49:06;;;;;;;7.85;1.48;;;20.80;73.30;;;;;;6278822;22;20011;-73
2023/10/14 10:51:33;;;;;;;6.82;1.70;;;20.80;73.30;;;;;;6279835;22;20018;-74
2023/10/14 10:53:59;;;;;;;8.83;2.00;;;20.80;73.30;;;;;;6280077;22;20015;-73
2023/10/14 10:56:29;;;;;;;9.65;1.85;;;20.80;73.40;;;;;;6278738;22;20302;-74
2023/10/14 10:58:57;;;;;;;10.75;2.40;;;20.80;73.40;;;;;;6307429;22;20052;-74
2023/10/14 11:01:22;;;;;;;7.82;1.80;;;20.80;73.30;;;;;;6306082;22;20361;-74
2023/10/14 11:03:49;;;;;;;10.40;1.60;;;20.80;73.40;;;;;;6279529;22;20435;-74
2023/10/14 11:06:17;;;;;;;9.68;1.95;;;20.70;73.20;;;;;;6279317;22;20519;-69
2023/10/14 11:08:46;;;;;;;11.65;2.15;;;20.80;73.20;;;;;;6253268;22;20095;-76
2023/10/14 11:11:12;;;;;;;10.10;1.90;;;20.80;73.10;;;;;;6253272;22;20023;-75
2023/10/14 11:13:39;;;;;;;8.68;2.00;;;20.80;73.20;;;;;;6253861;22;20019;-74
2023/10/14 11:16:13;;;;;;;9.75;1.65;;;20.70;72.80;;;;;;6306195;22;20023;-75
2023/10/14 11:18:47;;;;;;;8.75;1.70;;;20.70;72.70;;;;;;6279857;22;20022;-75
2023/10/14 11:21:13;;;;;;;7.68;1.80;;;20.70;72.60;;;;;;6279291;22;20012;-75
2023/10/14 11:23:39;;;;;;;10.43;1.73;;;20.70;72.50;;;;;;6253494;22;20112;-75
2023/10/14 11:26:09;;;;;;;12.23;1.80;;;20.70;72.40;;;;;;6279621;22;20374;-74
2023/10/14 11:28:37;;;;;;;7.20;2.00;;;20.70;72.40;;;;;;6279690;22;20019;-74
2023/10/14 11:31:07;;;;;;;6.88;1.67;;;20.70;72.40;;;;;;6253273;22;20434;-74
2023/10/14 11:33:34;;;;;;;8.82;1.60;;;20.70;72.40;;;;;;6254987;22;20030;-74
2023/10/14 11:36:02;;;;;;;10.80;2.03;;;20.70;72.40;;;;;;6279341;22;20439;-74
2023/10/14 11:38:29;;;;;;;6.95;1.45;;;20.70;72.30;;;;;;6278292;22;20377;-74
2023/10/14 11:40:55;;;;;;;6.20;1.42;;;20.70;72.30;;;;;;6254309;22;20027;-76
2023/10/14 11:43:21;;;;;;;6.38;1.60;;;20.70;72.20;;;;;;6227364;22;20023;-76
2023/10/14 11:45:46;;;;;;;6.20;1.60;;;20.70;72.20;;;;;;6253968;22;20025;-77
2023/10/14 11:48:30;;;;;;;9.52;1.73;;;20.70;72.10;;;;;;6306681;22;20015;-77
2023/10/14 11:51:00;;;;;;;7.00;1.48;;;20.70;72.20;;;;;;6252957;22;20026;-78
2023/10/14 11:53:27;;;;;;;7.60;1.52;;;20.70;72.20;;;;;;6306652;22;20015;-77
2023/10/14 11:56:00;;;;;;;8.02;2.00;;;20.70;72.10;;;;;;6307173;22;20011;-76
2023/10/14 11:58:31;;;;;;;4.35;1.30;;;20.70;72.20;;;;;;6254434;22;20343;-71
2023/10/14 12:00:57;;;;;;;7.80;1.38;;;20.70;72.10;;;;;;6278697;22;20527;-77
2023/10/14 12:03:26;;;;;;;8.95;1.50;;;20.70;72.00;;;;;;6307180;22;20477;-72
2023/10/14 12:05:58;;;;;;;9.00;1.58;;;20.70;72.00;;;;;;6277784;22;20015;-72
2023/10/14 12:08:28;;;;;;;7.05;1.27;;;20.70;71.90;;;;;;6279087;22;20590;-75
2023/10/14 12:10:54;;;;;;;6.90;1.30;;;20.70;71.80;;;;;;6255836;22;20016;-68
2023/10/14 12:13:20;;;;;;;8.57;1.70;;;20.70;71.80;;;;;;6306932;22;20065;-69
2023/10/14 12:15:46;;;;;;;12.02;1.50;;;20.70;71.60;;;;;;6280891;22;20447;-76
2023/10/14 12:18:13;;;;;;;10.52;1.75;;;20.80;71.30;;;;;;6281373;22;20027;-76
2023/10/14 12:20:41;;;;;;;6.13;1.70;;;20.80;71.10;;;;;;6280610;22;20019;-70
2023/10/14 12:23:06;;;;;;;8.70;1.30;;;20.80;71.10;;;;;;6279408;22;20261;-76
2023/10/14 12:25:32;;;;;;;5.68;1.23;;;20.80;70.80;;;;;;6281281;22;20022;-76
2023/10/14 12:27:57;;;;;;;8.80;1.23;;;20.80;70.20;;;;;;6308933;22;20088;-73
2023/10/14 12:30:39;;;;;;;8.70;1.40;;;20.70;69.80;;;;;;6278701;22;20098;-72
2023/10/14 12:33:05;;;;;;;7.75;1.27;;;20.70;69.60;;;;;;6306157;22;20427;-70
2023/10/14 12:35:33;;;;;;;7.95;1.58;;;20.70;69.60;;;;;;6279613;22;20079;-70
2023/10/14 12:37:59;;;;;;;6.00;1.20;;;20.70;69.40;;;;;;6308194;22;20019;-70
2023/10/14 12:40:29;;;;;;;10.43;1.63;;;20.70;69.30;;;;;;6279676;22;20096;-66
2023/10/14 12:43:03;;;;;;;9.55;1.20;;;20.60;68.80;;;;;;6308765;22;20358;-66
2023/10/14 12:45:28;;;;;;;6.97;1.10;;;20.60;68.00;;;;;;6280912;22;20015;-67
2023/10/14 12:48:00;;;;;;;8.43;1.08;;;20.50;67.80;;;;;;6308082;22;20076;-66
2023/10/14 12:50:25;;;;;;;5.75;1.20;;;20.50;68.40;;;;;;6280607;22;20018;-68
2023/10/14 12:53:03;;;;;;;5.40;1.30;;;20.50;67.90;;;;;;6280941;22;20408;-67
2023/10/14 12:55:30;;;;;;;9.43;1.23;;;20.50;67.50;;;;;;6307716;22;20030;-66
2023/10/14 12:57:59;;;;;;;5.20;1.15;;;20.50;67.50;;;;;;6308664;22;20452;-66
2023/10/14 13:00:30;;;;;;;8.55;1.10;;;20.50;67.40;;;;;;6280556;22;20011;-67
2023/10/14 13:02:57;;;;;;;8.48;1.45;;;20.40;67.50;;;;;;6279896;22;20468;-66
2023/10/14 13:05:25;;;;;;;6.28;1.05;;;20.50;67.60;;;;;;6308307;22;20021;-66
2023/10/14 13:07:52;;;;;;;10.20;1.33;;;20.40;67.50;;;;;;6307335;22;20025;-66
2023/10/14 13:10:18;;;;;;;7.65;1.10;;;20.40;67.60;;;;;;6308044;22;20049;-66
2023/10/14 13:12:50;;;;;;;6.50;1.30;;;20.50;67.80;;;;;;6306174;22;20015;-66
2023/10/14 13:15:27;;;;;;;10.60;1.50;;;20.50;67.80;;;;;;6306757;22;20023;-67
2023/10/14 13:17:57;;;;;;;6.22;1.10;;;20.50;67.90;;;;;;6308242;22;20038;-68
2023/10/14 13:20:27;;;;;;;8.48;1.27;;;20.50;68.00;;;;;;6280085;22;20050;-68
2023/10/14 13:23:14;;;;;;;7.15;1.50;;;20.50;68.10;;;;;;6279794;22;20022;-69
2023/10/14 13:25:40;;;;;;;6.18;1.17;;;20.50;68.10;;;;;;6280745;22;20026;-68